sensor_id;sensor_type;location;lat;lon;timestamp;pressure;altitude;pressure_sealevel;temperature;humidity
12897;BME280;6516;35.028;32.372;2023-05-19T00:01:29;99582.63;;;18.61;87.83
12897;BME280;6516;35.028;32.372;2023-05-19T00:03:58;99578.25;;;18.60;87.43
12897;BME280;6516;35.028;32.372;2023-05-19T00:06:30;99582.69;;;18.59;86.80
12897;BME280;6516;35.028;32.372;2023-05-19T00:09:01;99578.03;;;18.63;86.38
12897;BME280;6516;35.028;32.372;2023-05-19T00:11:30;99579.00;;;18.62;86.36
12897;BME280;6516;35.028;32.372;2023-05-19T00:14:02;99580.63;;;18.64;86.50
12897;BME280;6516;35.028;32.372;2023-05-19T00:16:31;99580.38;;;18.69;86.91
12897;BME280;6516;35.028;32.372;2023-05-19T00:18:59;99587.50;;;18.68;87.69
12897;BME280;6516;35.028;32.372;2023-05-19T00:21:30;99582.94;;;18.70;87.94
12897;BME280;6516;35.028;32.372;2023-05-19T00:23:58;99581.91;;;18.73;87.91
12897;BME280;6516;35.028;32.372;2023-05-19T00:26:27;99580.06;;;18.73;87.86
12897;BME280;6516;35.028;32.372;2023-05-19T00:28:54;99580.84;;;18.75;87.67
12897;BME280;6516;35.028;32.372;2023-05-19T00:31:23;99577.50;;;18.72;88.04
12897;BME280;6516;35.028;32.372;2023-05-19T00:33:50;99571.22;;;18.73;87.78
12897;BME280;6516;35.028;32.372;2023-05-19T00:36:18;99570.28;;;18.74;87.10
12897;BME280;6516;35.028;32.372;2023-05-19T00:38:47;99572.56;;;18.80;87.45
12897;BME280;6516;35.028;32.372;2023-05-19T00:41:16;99571.81;;;18.78;87.30
12897;BME280;6516;35.028;32.372;2023-05-19T00:43:43;99562.09;;;18.77;86.75
12897;BME280;6516;35.028;32.372;2023-05-19T00:46:11;99562.94;;;18.77;87.29
12897;BME280;6516;35.028;32.372;2023-05-19T00:48:39;99565.91;;;18.73;87.21
12897;BME280;6516;35.028;32.372;2023-05-19T00:51:09;99559.88;;;18.69;87.13
12897;BME280;6516;35.028;32.372;2023-05-19T00:53:39;99572.06;;;18.73;86.80
12897;BME280;6516;35.028;32.372;2023-05-19T00:56:10;99565.03;;;18.72;87.19
12897;BME280;6516;35.028;32.372;2023-05-19T00:58:37;99564.06;;;18.73;86.79
12897;BME280;6516;35.028;32.372;2023-05-19T01:01:05;99556.06;;;18.73;87.40
12897;BME280;6516;35.028;32.372;2023-05-19T01:03:34;99556.94;;;18.74;86.93
12897;BME280;6516;35.028;32.372;2023-05-19T01:06:03;99550.81;;;18.72;86.17
12897;BME280;6516;35.028;32.372;2023-05-19T01:08:32;99550.06;;;18.70;86.26
12897;BME280;6516;35.028;32.372;2023-05-19T01:11:00;99556.28;;;18.70;86.89
12897;BME280;6516;35.028;32.372;2023-05-19T01:13:30;99544.34;;;18.76;87.47
12897;BME280;6516;35.028;32.372;2023-05-19T01:16:02;99537.13;;;18.78;87.22
12897;BME280;6516;35.028;32.372;2023-05-19T01:18:39;99536.34;;;18.76;87.08
12897;BME280;6516;35.028;32.372;2023-05-19T01:21:29;99536.34;;;18.76;87.58
12897;BME280;6516;35.028;32.372;2023-05-19T01:24:22;99538.84;;;18.79;86.94
12897;BME280;6516;35.028;32.372;2023-05-19T01:27:15;99535.03;;;18.83;87.07
12897;BME280;6516;35.028;32.372;2023-05-19T01:32:59;99538.66;;;18.82;86.68
12897;BME280;6516;35.028;32.372;2023-05-19T01:35:30;99537.06;;;18.79;87.17
12897;BME280;6516;35.028;32.372;2023-05-19T01:37:59;99540.28;;;18.84;86.70
12897;BME280;6516;35.028;32.372;2023-05-19T01:40:28;99534.09;;;18.84;87.18
12897;BME280;6516;35.028;32.372;2023-05-19T01:42:58;99545.81;;;18.81;86.48
12897;BME280;6516;35.028;32.372;2023-05-19T01:45:29;99542.25;;;18.81;86.86
12897;BME280;6516;35.028;32.372;2023-05-19T01:48:00;99546.69;;;18.82;87.04
12897;BME280;6516;35.028;32.372;2023-05-19T01:50:30;99542.19;;;18.82;87.12
12897;BME280;6516;35.028;32.372;2023-05-19T01:52:59;99547.44;;;18.84;87.75
12897;BME280;6516;35.028;32.372;2023-05-19T01:55:27;99562.56;;;18.83;88.13
12897;BME280;6516;35.028;32.372;2023-05-19T01:58:04;99542.09;;;18.84;88.27
12897;BME280;6516;35.028;32.372;2023-05-19T02:00:48;99550.19;;;18.82;88.52
12897;BME280;6516;35.028;32.372;2023-05-19T02:03:31;99550.38;;;18.79;88.76
12897;BME280;6516;35.028;32.372;2023-05-19T02:06:18;99552.00;;;18.82;88.71
12897;BME280;6516;35.028;32.372;2023-05-19T02:08:59;99543.22;;;18.80;88.58
12897;BME280;6516;35.028;32.372;2023-05-19T02:11:35;99545.72;;;18.83;88.41
12897;BME280;6516;35.028;32.372;2023-05-19T02:14:07;99540.56;;;18.80;88.70
12897;BME280;6516;35.028;32.372;2023-05-19T02:16:44;99542.25;;;18.81;88.91
12897;BME280;6516;35.028;32.372;2023-05-19T02:19:20;99547.44;;;18.84;88.94
12897;BME280;6516;35.028;32.372;2023-05-19T02:21:49;99544.66;;;18.85;88.75
12897;BME280;6516;35.028;32.372;2023-05-19T02:24:17;99545.81;;;18.81;89.34
12897;BME280;6516;35.028;32.372;2023-05-19T02:26:47;99548.38;;;18.83;89.28
12897;BME280;6516;35.028;32.372;2023-05-19T02:29:15;99542.19;;;18.82;89.36
12897;BME280;6516;35.028;32.372;2023-05-19T02:31:44;99547.44;;;18.84;89.23
12897;BME280;6516;35.028;32.372;2023-05-19T02:34:12;99550.97;;;18.84;89.43
12897;BME280;6516;35.028;32.372;2023-05-19T02:36:41;99552.50;;;18.88;90.04
12897;BME280;6516;35.028;32.372;2023-05-19T02:39:09;99551.53;;;18.89;89.75
12897;BME280;6516;35.028;32.372;2023-05-19T02:41:37;99556.09;;;18.87;89.63
12897;BME280;6516;35.028;32.372;2023-05-19T02:44:05;99555.81;;;18.92;89.44
12897;BME280;6516;35.028;32.372;2023-05-19T02:46:32;99554.88;;;18.93;89.27
12897;BME280;6516;35.028;32.372;2023-05-19T02:49:02;99560.19;;;18.93;89.55
12897;BME280;6516;35.028;32.372;2023-05-19T02:51:30;99564.78;;;18.91;89.75
12897;BME280;6516;35.028;32.372;2023-05-19T02:53:57;99560.13;;;18.94;89.58
12897;BME280;6516;35.028;32.372;2023-05-19T02:56:25;99574.50;;;18.92;90.00
12897;BME280;6516;35.028;32.372;2023-05-19T02:58:53;99562.88;;;18.93;90.08
12897;BME280;6516;35.028;32.372;2023-05-19T03:01:21;99562.00;;;18.92;90.39
12897;BME280;6516;35.028;32.372;2023-05-19T03:03:49;99560.88;;;18.96;90.53
12897;BME280;6516;35.028;32.372;2023-05-19T03:06:18;99566.13;;;18.98;90.11
12897;BME280;6516;35.028;32.372;2023-05-19T03:08:48;99573.28;;;18.97;89.96
12897;BME280;6516;35.028;32.372;2023-05-19T03:11:16;99565.16;;;18.99;90.55
12897;BME280;6516;35.028;32.372;2023-05-19T03:13:43;99562.31;;;19.02;90.01
12897;BME280;6516;35.028;32.372;2023-05-19T03:16:11;99566.59;;;19.04;90.02
12897;BME280;6516;35.028;32.372;2023-05-19T03:18:39;99567.47;;;19.05;90.36
12897;BME280;6516;35.028;32.372;2023-05-19T03:21:07;99566.59;;;19.04;89.15
12897;BME280;6516;35.028;32.372;2023-05-19T03:23:36;99566.50;;;19.06;89.34
12897;BME280;6516;35.028;32.372;2023-05-19T03:26:04;99558.13;;;19.12;90.01
12897;BME280;6516;35.028;32.372;2023-05-19T03:28:32;99570.22;;;19.03;89.62
12897;BME280;6516;35.028;32.372;2023-05-19T03:30:59;99573.06;;;19.00;90.01
12897;BME280;6516;35.028;32.372;2023-05-19T03:33:27;99572.97;;;19.02;90.04
12897;BME280;6516;35.028;32.372;2023-05-19T03:35:55;99573.16;;;19.13;90.56
12897;BME280;6516;35.028;32.372;2023-05-19T03:38:23;99564.59;;;19.08;91.59
12897;BME280;6516;35.028;32.372;2023-05-19T03:40:52;99559.72;;;19.00;93.06
12897;BME280;6516;35.028;32.372;2023-05-19T03:43:20;99565.44;;;18.94;93.96
12897;BME280;6516;35.028;32.372;2023-05-19T03:45:48;99563.81;;;18.92;94.63
12897;BME280;6516;35.028;32.372;2023-05-19T03:48:16;99571.66;;;18.95;93.61
12897;BME280;6516;35.028;32.372;2023-05-19T03:50:43;99564.78;;;18.91;94.16
12897;BME280;6516;35.028;32.372;2023-05-19T03:53:13;99559.16;;;18.95;94.08
12897;BME280;6516;35.028;32.372;2023-05-19T03:55:42;99558.88;;;19.00;94.23
12897;BME280;6516;35.028;32.372;2023-05-19T03:58:12;99546.47;;;18.99;93.05
12897;BME280;6516;35.028;32.372;2023-05-19T04:00:40;99552.03;;;18.96;93.64
12897;BME280;6516;35.028;32.372;2023-05-19T04:03:08;99553.34;;;19.03;92.39
12897;BME280;6516;35.028;32.372;2023-05-19T04:05:36;99551.47;;;19.19;91.97
12897;BME280;6516;35.028;32.372;2023-05-19T04:08:05;99553.75;;;19.39;91.25
12897;BME280;6516;35.028;32.372;2023-05-19T04:10:33;99560.44;;;19.60;89.75
12897;BME280;6516;35.028;32.372;2023-05-19T04:13:01;99551.63;;;19.72;89.21
12897;BME280;6516;35.028;32.372;2023-05-19T04:15:30;99547.63;;;19.65;88.08
12897;BME280;6516;35.028;32.372;2023-05-19T04:17:58;99552.38;;;19.74;87.74
12897;BME280;6516;35.028;32.372;2023-05-19T04:20:27;99547.19;;;19.85;87.48
12897;BME280;6516;35.028;32.372;2023-05-19T04:22:55;99543.72;;;19.97;86.75
12897;BME280;6516;35.028;32.372;2023-05-19T04:25:23;99551.66;;;19.99;86.73
12897;BME280;6516;35.028;32.372;2023-05-19T04:27:52;99556.63;;;19.91;87.99
12897;BME280;6516;35.028;32.372;2023-05-19T04:30:22;99551.59;;;19.86;87.74
12897;BME280;6516;35.028;32.372;2023-05-19T04:32:52;99548.94;;;19.86;88.03
12897;BME280;6516;35.028;32.372;2023-05-19T04:35:23;99550.09;;;19.82;87.48
12897;BME280;6516;35.028;32.372;2023-05-19T04:37:51;99548.63;;;19.91;87.44
12897;BME280;6516;35.028;32.372;2023-05-19T04:40:20;99550.41;;;19.90;86.64
12897;BME280;6516;35.028;32.372;2023-05-19T04:42:48;99557.41;;;19.93;86.70
12897;BME280;6516;35.028;32.372;2023-05-19T04:45:17;99559.25;;;20.05;86.48
12897;BME280;6516;35.028;32.372;2023-05-19T04:47:44;99559.34;;;20.03;86.45
12897;BME280;6516;35.028;32.372;2023-05-19T04:50:14;99559.06;;;20.08;86.63
12897;BME280;6516;35.028;32.372;2023-05-19T04:52:42;99562.97;;;20.16;86.05
12897;BME280;6516;35.028;32.372;2023-05-19T04:55:11;99563.13;;;20.27;85.16
12897;BME280;6516;35.028;32.372;2023-05-19T04:57:39;99569.31;;;20.28;85.46
12897;BME280;6516;35.028;32.372;2023-05-19T05:00:08;99559.59;;;20.27;84.88
12897;BME280;6516;35.028;32.372;2023-05-19T05:02:38;99561.81;;;20.20;85.64
12897;BME280;6516;35.028;32.372;2023-05-19T05:05:08;99572.59;;;20.19;85.18
12897;BME280;6516;35.028;32.372;2023-05-19T05:07:37;99563.06;;;20.15;83.98
12897;BME280;6516;35.028;32.372;2023-05-19T05:10:06;99580.72;;;20.17;85.01
12897;BME280;6516;35.028;32.372;2023-05-19T05:12:38;99582.59;;;20.29;84.47
12897;BME280;6516;35.028;32.372;2023-05-19T05:15:07;99582.63;;;20.42;83.60
12897;BME280;6516;35.028;32.372;2023-05-19T05:17:36;99587.16;;;20.54;82.75
12897;BME280;6516;35.028;32.372;2023-05-19T05:20:05;99576.72;;;20.63;82.49
12897;BME280;6516;35.028;32.372;2023-05-19T05:22:34;99581.19;;;20.63;82.13
12897;BME280;6516;35.028;32.372;2023-05-19T05:25:05;99583.00;;;20.62;82.04
12897;BME280;6516;35.028;32.372;2023-05-19T05:27:34;99591.09;;;20.48;83.28
12897;BME280;6516;35.028;32.372;2023-05-19T05:30:02;99582.09;;;20.88;82.89
12897;BME280;6516;35.028;32.372;2023-05-19T05:32:31;99583.84;;;21.27;81.66
12897;BME280;6516;35.028;32.372;2023-05-19T05:34:59;99587.06;;;21.32;80.26
12897;BME280;6516;35.028;32.372;2023-05-19T05:37:26;99579.16;;;21.05;79.81
12897;BME280;6516;35.028;32.372;2023-05-19T05:39:56;99590.06;;;21.02;80.59
12897;BME280;6516;35.028;32.372;2023-05-19T05:42:24;99583.44;;;20.95;80.24
12897;BME280;6516;35.028;32.372;2023-05-19T05:44:52;99579.16;;;21.05;80.25
12897;BME280;6516;35.028;32.372;2023-05-19T05:47:20;99581.63;;;21.21;80.06
12897;BME280;6516;35.028;32.372;2023-05-19T05:49:48;99582.31;;;21.73;78.99
12897;BME280;6516;35.028;32.372;2023-05-19T05:52:17;99592.22;;;21.96;76.65
12897;BME280;6516;35.028;32.372;2023-05-19T05:54:48;99594.50;;;21.89;75.53
12897;BME280;6516;35.028;32.372;2023-05-19T05:57:18;99601.03;;;21.98;75.87
12897;BME280;6516;35.028;32.372;2023-05-19T05:59:46;99606.31;;;21.87;75.23
12897;BME280;6516;35.028;32.372;2023-05-19T06:02:15;99609.28;;;21.95;74.45
12897;BME280;6516;35.028;32.372;2023-05-19T06:04:43;99616.72;;;21.66;76.07
12897;BME280;6516;35.028;32.372;2023-05-19T06:07:11;99621.13;;;21.42;77.41
12897;BME280;6516;35.028;32.372;2023-05-19T06:09:39;99621.53;;;21.61;77.17
12897;BME280;6516;35.028;32.372;2023-05-19T06:12:07;99623.50;;;21.59;76.36
12897;BME280;6516;35.028;32.372;2023-05-19T06:14:37;99621.25;;;22.14;75.12
12897;BME280;6516;35.028;32.372;2023-05-19T06:17:05;99626.06;;;22.92;70.97
12897;BME280;6516;35.028;32.372;2023-05-19T06:19:32;99622.94;;;23.09;68.83
12897;BME280;6516;35.028;32.372;2023-05-19T06:22:00;99619.16;;;23.90;67.33
12897;BME280;6516;35.028;32.372;2023-05-19T06:24:28;99620.09;;;24.11;64.99
12897;BME280;6516;35.028;32.372;2023-05-19T06:26:57;99629.16;;;24.21;64.68
12897;BME280;6516;35.028;32.372;2023-05-19T06:29:25;99616.97;;;24.60;63.38
12897;BME280;6516;35.028;32.372;2023-05-19T06:31:54;99628.59;;;24.38;63.81
12897;BME280;6516;35.028;32.372;2023-05-19T06:34:23;99631.13;;;23.97;64.60
12897;BME280;6516;35.028;32.372;2023-05-19T06:36:51;99630.13;;;24.20;64.26
12897;BME280;6516;35.028;32.372;2023-05-19T06:39:19;99624.78;;;24.52;63.43
12897;BME280;6516;35.028;32.372;2023-05-19T06:41:47;99641.44;;;24.88;62.46
12897;BME280;6516;35.028;32.372;2023-05-19T06:44:16;99627.16;;;24.77;62.51
12897;BME280;6516;35.028;32.372;2023-05-19T06:46:44;99625.72;;;24.93;61.21
12897;BME280;6516;35.028;32.372;2023-05-19T06:49:14;99621.75;;;24.88;62.24
12897;BME280;6516;35.028;32.372;2023-05-19T06:51:42;99624.06;;;25.33;60.50
12897;BME280;6516;35.028;32.372;2023-05-19T06:54:10;99629.84;;;25.49;57.27
12897;BME280;6516;35.028;32.372;2023-05-19T06:56:41;99636.34;;;25.67;57.87
12897;BME280;6516;35.028;32.372;2023-05-19T06:59:10;99632.28;;;25.52;56.39
12897;BME280;6516;35.028;32.372;2023-05-19T07:01:38;99623.19;;;25.83;57.55
12897;BME280;6516;35.028;32.372;2023-05-19T07:04:05;99627.97;;;25.70;57.98
12897;BME280;6516;35.028;32.372;2023-05-19T07:06:35;99619.69;;;26.22;56.04
12897;BME280;6516;35.028;32.372;2023-05-19T07:09:03;99621.53;;;26.31;53.86
12897;BME280;6516;35.028;32.372;2023-05-19T07:11:31;99628.03;;;26.59;52.51
12897;BME280;6516;35.028;32.372;2023-05-19T07:13:58;99631.16;;;26.73;51.34
12897;BME280;6516;35.028;32.372;2023-05-19T07:16:26;99633.72;;;26.75;53.52
12897;BME280;6516;35.028;32.372;2023-05-19T07:18:54;99632.09;;;26.53;53.64
12897;BME280;6516;35.028;32.372;2023-05-19T07:21:22;99637.41;;;26.83;54.05
12897;BME280;6516;35.028;32.372;2023-05-19T07:23:51;99643.53;;;27.04;52.71
12897;BME280;6516;35.028;32.372;2023-05-19T07:26:19;99634.22;;;26.40;52.12
12897;BME280;6516;35.028;32.372;2023-05-19T07:28:47;99633.13;;;26.62;51.97
12897;BME280;6516;35.028;32.372;2023-05-19T07:31:15;99639.44;;;26.23;52.19
12897;BME280;6516;35.028;32.372;2023-05-19T07:33:43;99643.31;;;26.39;53.25
12897;BME280;6516;35.028;32.372;2023-05-19T07:36:11;99639.41;;;26.13;53.00
12897;BME280;6516;35.028;32.372;2023-05-19T07:38:39;99640.91;;;26.55;51.04
12897;BME280;6516;35.028;32.372;2023-05-19T07:41:08;99649.63;;;26.68;51.39
12897;BME280;6516;35.028;32.372;2023-05-19T07:43:36;99647.81;;;26.98;50.48
12897;BME280;6516;35.028;32.372;2023-05-19T07:46:04;99647.06;;;27.14;51.13
12897;BME280;6516;35.028;32.372;2023-05-19T07:48:32;99648.78;;;27.15;49.02
12897;BME280;6516;35.028;32.372;2023-05-19T07:51:00;99657.31;;;27.01;49.46
12897;BME280;6516;35.028;32.372;2023-05-19T07:53:28;99655.38;;;27.32;48.41
12897;BME280;6516;35.028;32.372;2023-05-19T07:55:56;99650.22;;;27.29;50.83
12897;BME280;6516;35.028;32.372;2023-05-19T07:58:25;99657.63;;;27.37;49.08
12897;BME280;6516;35.028;32.372;2023-05-19T08:00:56;99664.31;;;26.75;50.00
12897;BME280;6516;35.028;32.372;2023-05-19T08:03:24;99663.56;;;26.92;52.46
12897;BME280;6516;35.028;32.372;2023-05-19T08:05:54;99662.84;;;26.62;51.49
12897;BME280;6516;35.028;32.372;2023-05-19T08:08:21;99665.72;;;27.08;51.78
12897;BME280;6516;35.028;32.372;2023-05-19T08:10:52;99657.88;;;27.14;50.63
12897;BME280;6516;35.028;32.372;2023-05-19T08:13:20;99659.03;;;27.41;49.26
12897;BME280;6516;35.028;32.372;2023-05-19T08:15:49;99659.31;;;27.38;49.90
12897;BME280;6516;35.028;32.372;2023-05-19T08:18:18;99668.56;;;27.35;48.15
12897;BME280;6516;35.028;32.372;2023-05-19T08:20:46;99657.44;;;27.57;46.73
12897;BME280;6516;35.028;32.372;2023-05-19T08:23:14;99660.41;;;27.54;49.15
12897;BME280;6516;35.028;32.372;2023-05-19T08:25:42;99659.59;;;27.44;48.77
12897;BME280;6516;35.028;32.372;2023-05-19T08:28:10;99656.56;;;27.66;49.08
12897;BME280;6516;35.028;32.372;2023-05-19T08:30:38;99642.50;;;28.26;48.50
12897;BME280;6516;35.028;32.372;2023-05-19T08:33:07;99657.31;;;28.32;46.19
12897;BME280;6516;35.028;32.372;2023-05-19T08:35:35;99650.88;;;28.06;48.46
12897;BME280;6516;35.028;32.372;2023-05-19T08:38:03;99650.72;;;27.61;48.44
12897;BME280;6516;35.028;32.372;2023-05-19T08:40:32;99653.16;;;27.64;48.40
12897;BME280;6516;35.028;32.372;2023-05-19T08:43:01;99667.22;;;27.68;48.31
12897;BME280;6516;35.028;32.372;2023-05-19T08:45:29;99652.75;;;27.50;48.77
12897;BME280;6516;35.028;32.372;2023-05-19T08:47:59;99660.31;;;26.98;50.15
12897;BME280;6516;35.028;32.372;2023-05-19T08:50:30;99658.75;;;27.25;49.79
12897;BME280;6516;35.028;32.372;2023-05-19T08:53:01;99660.47;;;27.45;49.51
12897;BME280;6516;35.028;32.372;2023-05-19T08:55:38;99656.69;;;27.74;48.31
12897;BME280;6516;35.028;32.372;2023-05-19T08:58:10;99653.25;;;27.72;48.56
12897;BME280;6516;35.028;32.372;2023-05-19T09:00:40;99654.41;;;27.70;48.92
12897;BME280;6516;35.028;32.372;2023-05-19T09:03:08;99657.63;;;27.46;50.12
12897;BME280;6516;35.028;32.372;2023-05-19T09:05:39;99652.09;;;27.94;49.09
12897;BME280;6516;35.028;32.372;2023-05-19T09:08:07;99656.38;;;28.23;48.16
12897;BME280;6516;35.028;32.372;2023-05-19T09:10:35;99656.22;;;27.98;47.35
12897;BME280;6516;35.028;32.372;2023-05-19T09:13:04;99644.16;;;27.73;49.24
12897;BME280;6516;35.028;32.372;2023-05-19T09:15:33;99647.94;;;27.34;49.87
12897;BME280;6516;35.028;32.372;2023-05-19T09:18:05;99640.78;;;27.62;47.64
12897;BME280;6516;35.028;32.372;2023-05-19T09:20:36;99650.63;;;27.05;50.90
12897;BME280;6516;35.028;32.372;2023-05-19T09:23:06;99649.06;;;26.74;49.07
12897;BME280;6516;35.028;32.372;2023-05-19T09:25:45;99658.91;;;26.26;52.23
12897;BME280;6516;35.028;32.372;2023-05-19T09:28:14;99666.44;;;25.93;52.49
12897;BME280;6516;35.028;32.372;2023-05-19T09:30:58;99654.06;;;26.20;51.97
12897;BME280;6516;35.028;32.372;2023-05-19T09:33:27;99657.22;;;26.35;51.92
12897;BME280;6516;35.028;32.372;2023-05-19T09:35:55;99650.59;;;26.58;52.30
12897;BME280;6516;35.028;32.372;2023-05-19T09:38:25;99646.81;;;26.98;51.46
12897;BME280;6516;35.028;32.372;2023-05-19T09:40:55;99654.31;;;27.43;50.05
12897;BME280;6516;35.028;32.372;2023-05-19T09:43:23;99640.59;;;27.73;49.03
12897;BME280;6516;35.028;32.372;2023-05-19T09:45:57;99637.72;;;27.74;48.31
12897;BME280;6516;35.028;32.372;2023-05-19T09:48:26;99634.13;;;28.20;47.29
12897;BME280;6516;35.028;32.372;2023-05-19T09:50:53;99628.72;;;28.47;46.79
12897;BME280;6516;35.028;32.372;2023-05-19T09:53:22;99631.56;;;28.72;46.50
12897;BME280;6516;35.028;32.372;2023-05-19T09:55:55;99628.84;;;28.90;46.36
12897;BME280;6516;35.028;32.372;2023-05-19T09:58:23;99628.41;;;29.12;44.42
12897;BME280;6516;35.028;32.372;2023-05-19T10:00:53;99627.47;;;29.03;43.22
12897;BME280;6516;35.028;32.372;2023-05-19T10:03:22;99627.38;;;28.33;45.83
12897;BME280;6516;35.028;32.372;2023-05-19T10:05:50;99626.84;;;28.30;46.56
12897;BME280;6516;35.028;32.372;2023-05-19T10:08:19;99626.25;;;28.53;46.44
12897;BME280;6516;35.028;32.372;2023-05-19T10:10:53;99614.53;;;28.80;47.17
12897;BME280;6516;35.028;32.372;2023-05-19T10:13:21;99618.16;;;28.88;44.64
12897;BME280;6516;35.028;32.372;2023-05-19T10:15:51;99617.97;;;28.28;46.52
12897;BME280;6516;35.028;32.372;2023-05-19T10:18:21;99628.47;;;28.40;47.65
12897;BME280;6516;35.028;32.372;2023-05-19T10:20:49;99623.25;;;28.56;46.03
12897;BME280;6516;35.028;32.372;2023-05-19T10:23:18;99623.41;;;28.55;45.73
12897;BME280;6516;35.028;32.372;2023-05-19T10:25:47;99627.50;;;28.59;45.44
12897;BME280;6516;35.028;32.372;2023-05-19T10:28:18;99622.97;;;28.77;46.33
12897;BME280;6516;35.028;32.372;2023-05-19T10:30:49;99624.97;;;28.92;46.03
12897;BME280;6516;35.028;32.372;2023-05-19T10:33:26;99631.16;;;28.50;47.51
12897;BME280;6516;35.028;32.372;2023-05-19T10:36:22;99620.25;;;28.32;46.76
12897;BME280;6516;35.028;32.372;2023-05-19T10:39:02;99627.78;;;27.75;46.15
12897;BME280;6516;35.028;32.372;2023-05-19T10:41:38;99628.31;;;27.88;48.26
12897;BME280;6516;35.028;32.372;2023-05-19T10:44:22;99622.41;;;27.56;49.05
12897;BME280;6516;35.028;32.372;2023-05-19T10:46:57;99617.66;;;27.67;48.27
12897;BME280;6516;35.028;32.372;2023-05-19T10:49:25;99617.94;;;27.83;48.12
12897;BME280;6516;35.028;32.372;2023-05-19T10:51:54;99617.16;;;28.00;47.56
12897;BME280;6516;35.028;32.372;2023-05-19T10:54:41;99610.59;;;28.03;46.72
12897;BME280;6516;35.028;32.372;2023-05-19T10:57:13;99604.81;;;27.88;48.35
12897;BME280;6516;35.028;32.372;2023-05-19T10:59:43;99597.28;;;27.82;47.10
12897;BME280;6516;35.028;32.372;2023-05-19T11:02:36;99601.59;;;28.02;46.33
12897;BME280;6516;35.028;32.372;2023-05-19T11:05:09;99602.78;;;27.54;47.24
12897;BME280;6516;35.028;32.372;2023-05-19T11:07:40;99605.88;;;27.59;48.19
12897;BME280;6516;35.028;32.372;2023-05-19T11:10:09;99595.13;;;27.76;47.88
12897;BME280;6516;35.028;32.372;2023-05-19T11:12:42;99606.41;;;27.72;46.61
12897;BME280;6516;35.028;32.372;2023-05-19T11:15:13;99602.66;;;27.46;49.36
12897;BME280;6516;35.028;32.372;2023-05-19T11:17:44;99591.00;;;27.36;48.35
12897;BME280;6516;35.028;32.372;2023-05-19T11:20:21;99594.13;;;27.31;49.07
12897;BME280;6516;35.028;32.372;2023-05-19T11:23:06;99590.56;;;27.40;48.35
12897;BME280;6516;35.028;32.372;2023-05-19T11:25:41;99576.72;;;27.53;48.07
12897;BME280;6516;35.028;32.372;2023-05-19T11:28:10;99596.44;;;27.26;48.92
12897;BME280;6516;35.028;32.372;2023-05-19T11:30:43;99585.25;;;27.58;48.21
12897;BME280;6516;35.028;32.372;2023-05-19T11:33:11;99575.94;;;27.70;48.92
12897;BME280;6516;35.028;32.372;2023-05-19T11:35:41;99582.19;;;27.34;49.00
12897;BME280;6516;35.028;32.372;2023-05-19T11:38:10;99573.53;;;27.01;49.66
12897;BME280;6516;35.028;32.372;2023-05-19T11:40:38;99577.38;;;26.99;51.36
12897;BME280;6516;35.028;32.372;2023-05-19T11:43:06;99573.97;;;26.97;51.53
12897;BME280;6516;35.028;32.372;2023-05-19T11:45:34;99567.56;;;26.98;51.66
12897;BME280;6516;35.028;32.372;2023-05-19T11:48:04;99565.69;;;27.17;50.96
12897;BME280;6516;35.028;32.372;2023-05-19T11:50:35;99569.84;;;26.83;51.42
12897;BME280;6516;35.028;32.372;2023-05-19T11:53:03;99566.03;;;26.76;51.92
12897;BME280;6516;35.028;32.372;2023-05-19T11:55:31;99559.50;;;26.79;51.38
12897;BME280;6516;35.028;32.372;2023-05-19T11:57:59;99563.91;;;26.89;51.06
12897;BME280;6516;35.028;32.372;2023-05-19T12:00:29;99553.50;;;26.85;50.52
12897;BME280;6516;35.028;32.372;2023-05-19T12:03:01;99556.78;;;26.88;50.75
12897;BME280;6516;35.028;32.372;2023-05-19T12:05:31;99556.91;;;26.96;50.08
12897;BME280;6516;35.028;32.372;2023-05-19T12:07:59;99552.91;;;27.00;49.99
12897;BME280;6516;35.028;32.372;2023-05-19T12:10:29;99552.66;;;26.65;50.85
12897;BME280;6516;35.028;32.372;2023-05-19T12:12:58;99558.03;;;26.46;52.19
12897;BME280;6516;35.028;32.372;2023-05-19T12:15:26;99548.69;;;26.60;51.65
12897;BME280;6516;35.028;32.372;2023-05-19T12:17:56;99552.53;;;26.67;50.60
12897;BME280;6516;35.028;32.372;2023-05-19T12:20:28;99542.81;;;27.02;50.95
12897;BME280;6516;35.028;32.372;2023-05-19T12:22:57;99540.41;;;26.99;49.04
12897;BME280;6516;35.028;32.372;2023-05-19T12:25:26;99540.53;;;26.98;49.95
12897;BME280;6516;35.028;32.372;2023-05-19T12:27:56;99537.94;;;27.15;50.89
12897;BME280;6516;35.028;32.372;2023-05-19T12:30:25;99522.63;;;27.07;51.00
12897;BME280;6516;35.028;32.372;2023-05-19T12:32:54;99530.84;;;27.14;49.24
12897;BME280;6516;35.028;32.372;2023-05-19T12:35:26;99526.72;;;27.10;49.07
12897;BME280;6516;35.028;32.372;2023-05-19T12:37:55;99523.03;;;27.21;50.21
12897;BME280;6516;35.028;32.372;2023-05-19T12:40:23;99521.78;;;27.43;49.51
12897;BME280;6516;35.028;32.372;2023-05-19T12:42:55;99513.91;;;27.22;50.75
12897;BME280;6516;35.028;32.372;2023-05-19T12:45:26;99508.25;;;26.96;51.35
12897;BME280;6516;35.028;32.372;2023-05-19T12:47:54;99513.25;;;26.06;52.99
12897;BME280;6516;35.028;32.372;2023-05-19T12:50:30;99513.59;;;25.82;52.58
12897;BME280;6516;35.028;32.372;2023-05-19T12:52:58;99511.41;;;26.16;52.49
12897;BME280;6516;35.028;32.372;2023-05-19T12:55:26;99509.13;;;26.02;52.55
12897;BME280;6516;35.028;32.372;2023-05-19T12:57:54;99520.53;;;26.43;53.06
12897;BME280;6516;35.028;32.372;2023-05-19T13:00:24;99510.56;;;26.44;52.83
12897;BME280;6516;35.028;32.372;2023-05-19T13:02:57;99514.28;;;26.62;52.65
12897;BME280;6516;35.028;32.372;2023-05-19T13:05:26;99506.75;;;26.84;52.17
12897;BME280;6516;35.028;32.372;2023-05-19T13:07:58;99498.03;;;26.90;51.96
12897;BME280;6516;35.028;32.372;2023-05-19T13:10:28;99508.28;;;26.87;52.55
12897;BME280;6516;35.028;32.372;2023-05-19T13:12:57;99499.19;;;26.88;51.21
12897;BME280;6516;35.028;32.372;2023-05-19T13:15:27;99506.31;;;26.70;52.42
12897;BME280;6516;35.028;32.372;2023-05-19T13:18:00;99510.88;;;26.69;52.57